Thomaston, New York
Current Conditions -  °F | °C
As of 10:51 AM on Friday 31 Oct 2014 (Local Time) from KLGA Reporting Station
Overcast Overcast  
Wind Chill: 44°   Ceiling: 5000
Heat Index: 49°   Visibility: 10mi
Dew Point: 35°   Wind: 13mph
Humidity: 59%   Direction: 50°NE
Pressure: 29.99"   Gusts: NA
Location:  40.786°N, 73.7291°W
Report Text: KLGA 311451Z 05011KT 10SM BKN050 OVC160 09/02 A2999 RMK AO2 SLP156 T00940017 58008
Loading
Personal Weather Stations






























Interactive Weather Map New forecast layout! Learn more

10-Day Weather Forecast

Advertisements
Track Severe Weather on mobile